sensor_id;sensor_type;location;lat;lon;timestamp;temperature;humidity
27314;DHT22;14800;48.174;9.798;2023-03-14T00:02:16;11.80;80.50
27314;DHT22;14800;48.174;9.798;2023-03-14T00:04:42;11.70;81.10
27314;DHT22;14800;48.174;9.798;2023-03-14T00:07:07;11.70;81.60
27314;DHT22;14800;48.174;9.798;2023-03-14T00:09:35;11.50;82.30
27314;DHT22;14800;48.174;9.798;2023-03-14T00:12:00;11.40;83.00
27314;DHT22;14800;48.174;9.798;2023-03-14T00:14:28;11.30;83.70
27314;DHT22;14800;48.174;9.798;2023-03-14T00:16:54;11.20;84.00
27314;DHT22;14800;48.174;9.798;2023-03-14T00:19:20;11.20;84.10
27314;DHT22;14800;48.174;9.798;2023-03-14T00:21:45;11.10;84.60
27314;DHT22;14800;48.174;9.798;2023-03-14T00:24:11;11.00;84.40
27314;DHT22;14800;48.174;9.798;2023-03-14T00:26:37;10.90;84.50
27314;DHT22;14800;48.174;9.798;2023-03-14T00:29:02;10.90;84.80
27314;DHT22;14800;48.174;9.798;2023-03-14T00:31:28;10.90;84.90
27314;DHT22;14800;48.174;9.798;2023-03-14T00:33:54;10.80;84.90
27314;DHT22;14800;48.174;9.798;2023-03-14T00:36:20;10.80;84.80
27314;DHT22;14800;48.174;9.798;2023-03-14T00:38:48;10.80;84.80
27314;DHT22;14800;48.174;9.798;2023-03-14T00:41:18;10.80;84.60
27314;DHT22;14800;48.174;9.798;2023-03-14T00:43:44;10.70;84.20
27314;DHT22;14800;48.174;9.798;2023-03-14T00:46:11;10.70;83.80
27314;DHT22;14800;48.174;9.798;2023-03-14T00:48:37;10.80;83.50
27314;DHT22;14800;48.174;9.798;2023-03-14T00:51:04;10.80;83.40
27314;DHT22;14800;48.174;9.798;2023-03-14T00:53:29;10.80;83.70
27314;DHT22;14800;48.174;9.798;2023-03-14T00:55:55;10.90;83.40
27314;DHT22;14800;48.174;9.798;2023-03-14T00:58:21;10.90;83.20
27314;DHT22;14800;48.174;9.798;2023-03-14T01:00:46;10.90;83.10
27314;DHT22;14800;48.174;9.798;2023-03-14T01:03:13;11.00;83.10
27314;DHT22;14800;48.174;9.798;2023-03-14T01:05:39;11.00;83.10
27314;DHT22;14800;48.174;9.798;2023-03-14T01:08:05;10.90;82.70
27314;DHT22;14800;48.174;9.798;2023-03-14T01:10:32;10.90;82.70
27314;DHT22;14800;48.174;9.798;2023-03-14T01:12:58;10.90;82.60
27314;DHT22;14800;48.174;9.798;2023-03-14T01:15:23;10.80;82.20
27314;DHT22;14800;48.174;9.798;2023-03-14T01:17:49;10.90;82.00
27314;DHT22;14800;48.174;9.798;2023-03-14T01:20:15;10.80;81.90
27314;DHT22;14800;48.174;9.798;2023-03-14T01:22:42;10.80;81.80
27314;DHT22;14800;48.174;9.798;2023-03-14T01:25:11;10.90;81.70
27314;DHT22;14800;48.174;9.798;2023-03-14T01:27:37;10.90;81.60
27314;DHT22;14800;48.174;9.798;2023-03-14T01:30:03;10.80;81.40
27314;DHT22;14800;48.174;9.798;2023-03-14T01:32:29;10.90;81.50
27314;DHT22;14800;48.174;9.798;2023-03-14T01:34:55;10.80;81.60
27314;DHT22;14800;48.174;9.798;2023-03-14T01:37:21;10.90;81.50
27314;DHT22;14800;48.174;9.798;2023-03-14T01:39:47;10.90;81.30
27314;DHT22;14800;48.174;9.798;2023-03-14T01:42:13;10.90;81.30
27314;DHT22;14800;48.174;9.798;2023-03-14T01:44:58;10.90;81.20
27314;DHT22;14800;48.174;9.798;2023-03-14T01:47:24;10.90;81.60
27314;DHT22;14800;48.174;9.798;2023-03-14T01:50:04;10.90;80.90
27314;DHT22;14800;48.174;9.798;2023-03-14T01:52:45;10.90;81.40
27314;DHT22;14800;48.174;9.798;2023-03-14T01:55:16;10.90;81.70
27314;DHT22;14800;48.174;9.798;2023-03-14T01:57:59;10.90;81.00
27314;DHT22;14800;48.174;9.798;2023-03-14T02:00:25;10.90;81.90
27314;DHT22;14800;48.174;9.798;2023-03-14T02:03:02;10.90;80.90
27314;DHT22;14800;48.174;9.798;2023-03-14T02:05:32;10.80;81.50
27314;DHT22;14800;48.174;9.798;2023-03-14T02:08:02;10.80;81.10
27314;DHT22;14800;48.174;9.798;2023-03-14T02:10:31;10.80;81.20
27314;DHT22;14800;48.174;9.798;2023-03-14T02:13:00;10.80;81.10
27314;DHT22;14800;48.174;9.798;2023-03-14T02:15:27;10.80;81.20
27314;DHT22;14800;48.174;9.798;2023-03-14T02:17:53;10.80;80.90
27314;DHT22;14800;48.174;9.798;2023-03-14T02:22:47;10.80;81.20
27314;DHT22;14800;48.174;9.798;2023-03-14T02:25:20;10.80;80.90
27314;DHT22;14800;48.174;9.798;2023-03-14T02:27:49;10.80;81.10
27314;DHT22;14800;48.174;9.798;2023-03-14T02:32:47;10.80;80.70
27314;DHT22;14800;48.174;9.798;2023-03-14T02:35:17;10.80;80.70
27314;DHT22;14800;48.174;9.798;2023-03-14T02:40:15;10.80;80.60
27314;DHT22;14800;48.174;9.798;2023-03-14T02:42:41;10.70;80.50
27314;DHT22;14800;48.174;9.798;2023-03-14T02:47:37;10.70;80.80
27314;DHT22;14800;48.174;9.798;2023-03-14T02:50:10;10.70;80.80
27314;DHT22;14800;48.174;9.798;2023-03-14T02:52:37;10.70;81.00
27314;DHT22;14800;48.174;9.798;2023-03-14T02:55:03;10.70;80.80
27314;DHT22;14800;48.174;9.798;2023-03-14T02:57:29;10.60;80.60
27314;DHT22;14800;48.174;9.798;2023-03-14T03:00:01;10.60;80.70
27314;DHT22;14800;48.174;9.798;2023-03-14T03:02:29;10.60;81.00
27314;DHT22;14800;48.174;9.798;2023-03-14T03:04:54;10.60;80.60
27314;DHT22;14800;48.174;9.798;2023-03-14T03:07:20;10.60;80.90
27314;DHT22;14800;48.174;9.798;2023-03-14T03:09:46;10.50;81.00
27314;DHT22;14800;48.174;9.798;2023-03-14T03:12:12;10.50;81.00
27314;DHT22;14800;48.174;9.798;2023-03-14T03:14:37;10.50;80.80
27314;DHT22;14800;48.174;9.798;2023-03-14T03:17:04;10.50;80.70
27314;DHT22;14800;48.174;9.798;2023-03-14T03:19:31;10.50;80.80
27314;DHT22;14800;48.174;9.798;2023-03-14T03:21:56;10.50;81.00
27314;DHT22;14800;48.174;9.798;2023-03-14T03:24:23;10.50;80.90
27314;DHT22;14800;48.174;9.798;2023-03-14T03:26:49;10.50;80.90
27314;DHT22;14800;48.174;9.798;2023-03-14T03:29:14;10.40;81.00
27314;DHT22;14800;48.174;9.798;2023-03-14T03:31:40;10.40;81.00
27314;DHT22;14800;48.174;9.798;2023-03-14T03:34:06;10.40;80.80
27314;DHT22;14800;48.174;9.798;2023-03-14T03:36:31;10.40;80.90
27314;DHT22;14800;48.174;9.798;2023-03-14T03:38:57;10.40;81.00
27314;DHT22;14800;48.174;9.798;2023-03-14T03:41:22;10.40;80.90
27314;DHT22;14800;48.174;9.798;2023-03-14T03:43:48;10.40;80.90
27314;DHT22;14800;48.174;9.798;2023-03-14T03:46:14;10.40;80.80
27314;DHT22;14800;48.174;9.798;2023-03-14T03:48:39;10.40;80.90
27314;DHT22;14800;48.174;9.798;2023-03-14T03:51:06;10.40;80.70
27314;DHT22;14800;48.174;9.798;2023-03-14T03:53:32;10.40;80.80
27314;DHT22;14800;48.174;9.798;2023-03-14T03:55:58;10.40;80.80
27314;DHT22;14800;48.174;9.798;2023-03-14T03:58:23;10.30;81.60
27314;DHT22;14800;48.174;9.798;2023-03-14T04:00:49;10.30;80.70
27314;DHT22;14800;48.174;9.798;2023-03-14T04:03:14;10.30;80.70
27314;DHT22;14800;48.174;9.798;2023-03-14T04:05:40;10.30;80.60
27314;DHT22;14800;48.174;9.798;2023-03-14T04:08:06;10.30;80.70
27314;DHT22;14800;48.174;9.798;2023-03-14T04:10:34;10.30;80.80
27314;DHT22;14800;48.174;9.798;2023-03-14T04:13:00;10.20;80.90
27314;DHT22;14800;48.174;9.798;2023-03-14T04:15:26;10.20;80.60
27314;DHT22;14800;48.174;9.798;2023-03-14T04:17:54;10.20;80.60
27314;DHT22;14800;48.174;9.798;2023-03-14T04:20:21;10.20;80.60
27314;DHT22;14800;48.174;9.798;2023-03-14T04:22:46;10.20;80.60
27314;DHT22;14800;48.174;9.798;2023-03-14T04:25:12;10.20;80.50
27314;DHT22;14800;48.174;9.798;2023-03-14T04:27:37;10.20;80.50
27314;DHT22;14800;48.174;9.798;2023-03-14T04:30:03;10.20;80.40
27314;DHT22;14800;48.174;9.798;2023-03-14T04:32:29;10.20;80.30
27314;DHT22;14800;48.174;9.798;2023-03-14T04:34:54;10.20;80.20
27314;DHT22;14800;48.174;9.798;2023-03-14T04:37:20;10.10;80.10
27314;DHT22;14800;48.174;9.798;2023-03-14T04:39:45;10.20;80.10
27314;DHT22;14800;48.174;9.798;2023-03-14T04:42:11;10.10;79.80
27314;DHT22;14800;48.174;9.798;2023-03-14T04:44:37;10.20;79.80
27314;DHT22;14800;48.174;9.798;2023-03-14T04:47:02;10.10;79.70
27314;DHT22;14800;48.174;9.798;2023-03-14T04:49:28;10.10;79.60
27314;DHT22;14800;48.174;9.798;2023-03-14T04:51:53;10.10;79.60
27314;DHT22;14800;48.174;9.798;2023-03-14T04:54:19;10.10;79.60
27314;DHT22;14800;48.174;9.798;2023-03-14T04:56:44;10.10;79.40
27314;DHT22;14800;48.174;9.798;2023-03-14T04:59:10;10.10;79.40
27314;DHT22;14800;48.174;9.798;2023-03-14T05:01:36;10.10;79.40
27314;DHT22;14800;48.174;9.798;2023-03-14T05:04:01;10.10;79.30
27314;DHT22;14800;48.174;9.798;2023-03-14T05:06:27;10.10;79.40
27314;DHT22;14800;48.174;9.798;2023-03-14T05:08:53;10.10;79.30
27314;DHT22;14800;48.174;9.798;2023-03-14T05:11:18;10.10;79.30
27314;DHT22;14800;48.174;9.798;2023-03-14T05:13:44;10.10;79.30
27314;DHT22;14800;48.174;9.798;2023-03-14T05:16:10;10.10;79.20
27314;DHT22;14800;48.174;9.798;2023-03-14T05:18:36;10.10;79.20
27314;DHT22;14800;48.174;9.798;2023-03-14T05:21:03;10.00;79.10
27314;DHT22;14800;48.174;9.798;2023-03-14T05:23:29;10.00;79.20
27314;DHT22;14800;48.174;9.798;2023-03-14T05:25:54;10.00;79.10
27314;DHT22;14800;48.174;9.798;2023-03-14T05:28:20;10.00;79.20
27314;DHT22;14800;48.174;9.798;2023-03-14T05:30:46;10.00;79.10
27314;DHT22;14800;48.174;9.798;2023-03-14T05:33:11;10.00;79.10
27314;DHT22;14800;48.174;9.798;2023-03-14T05:35:37;10.00;79.30
27314;DHT22;14800;48.174;9.798;2023-03-14T05:38:02;10.00;79.30
27314;DHT22;14800;48.174;9.798;2023-03-14T05:40:28;9.90;79.30
27314;DHT22;14800;48.174;9.798;2023-03-14T05:42:54;10.00;79.50
27314;DHT22;14800;48.174;9.798;2023-03-14T05:45:19;9.90;79.40
27314;DHT22;14800;48.174;9.798;2023-03-14T05:47:45;9.90;79.40
27314;DHT22;14800;48.174;9.798;2023-03-14T05:50:10;9.90;79.70
27314;DHT22;14800;48.174;9.798;2023-03-14T05:52:36;9.90;79.40
27314;DHT22;14800;48.174;9.798;2023-03-14T05:55:02;9.90;79.40
27314;DHT22;14800;48.174;9.798;2023-03-14T05:57:28;9.90;79.60
27314;DHT22;14800;48.174;9.798;2023-03-14T05:59:54;9.90;79.60
27314;DHT22;14800;48.174;9.798;2023-03-14T06:02:19;9.90;79.60
27314;DHT22;14800;48.174;9.798;2023-03-14T06:04:45;9.90;79.60
27314;DHT22;14800;48.174;9.798;2023-03-14T06:07:10;9.90;79.60
27314;DHT22;14800;48.174;9.798;2023-03-14T06:09:36;9.90;79.60
27314;DHT22;14800;48.174;9.798;2023-03-14T06:12:02;9.90;79.60
27314;DHT22;14800;48.174;9.798;2023-03-14T06:14:28;9.90;79.70
27314;DHT22;14800;48.174;9.798;2023-03-14T06:16:54;9.90;79.60
27314;DHT22;14800;48.174;9.798;2023-03-14T06:19:19;9.90;79.50
27314;DHT22;14800;48.174;9.798;2023-03-14T06:21:45;9.90;79.60
27314;DHT22;14800;48.174;9.798;2023-03-14T06:24:10;9.90;79.50
27314;DHT22;14800;48.174;9.798;2023-03-14T06:26:36;9.90;79.40
27314;DHT22;14800;48.174;9.798;2023-03-14T06:29:02;9.90;79.40
27314;DHT22;14800;48.174;9.798;2023-03-14T06:31:29;9.90;79.40
27314;DHT22;14800;48.174;9.798;2023-03-14T06:33:55;9.90;79.40
27314;DHT22;14800;48.174;9.798;2023-03-14T06:36:21;9.90;79.40
27314;DHT22;14800;48.174;9.798;2023-03-14T06:38:47;9.90;79.30
27314;DHT22;14800;48.174;9.798;2023-03-14T06:41:12;9.90;79.30
27314;DHT22;14800;48.174;9.798;2023-03-14T06:43:38;10.00;79.30
27314;DHT22;14800;48.174;9.798;2023-03-14T06:46:04;10.00;79.30
27314;DHT22;14800;48.174;9.798;2023-03-14T06:48:30;10.00;79.10
27314;DHT22;14800;48.174;9.798;2023-03-14T06:50:55;10.00;79.10
27314;DHT22;14800;48.174;9.798;2023-03-14T06:53:21;10.00;79.00
27314;DHT22;14800;48.174;9.798;2023-03-14T06:55:47;10.00;78.90
27314;DHT22;14800;48.174;9.798;2023-03-14T06:58:12;10.10;79.70
27314;DHT22;14800;48.174;9.798;2023-03-14T07:00:38;10.10;78.80
27314;DHT22;14800;48.174;9.798;2023-03-14T07:03:04;10.10;78.70
27314;DHT22;14800;48.174;9.798;2023-03-14T07:05:29;10.10;78.70
27314;DHT22;14800;48.174;9.798;2023-03-14T07:07:55;10.10;79.40
27314;DHT22;14800;48.174;9.798;2023-03-14T07:10:21;10.20;78.60
27314;DHT22;14800;48.174;9.798;2023-03-14T07:12:47;10.20;78.50
27314;DHT22;14800;48.174;9.798;2023-03-14T07:15:12;10.20;78.50
27314;DHT22;14800;48.174;9.798;2023-03-14T07:17:38;10.20;78.30
27314;DHT22;14800;48.174;9.798;2023-03-14T07:20:04;10.30;78.30
27314;DHT22;14800;48.174;9.798;2023-03-14T07:22:30;10.30;78.10
27314;DHT22;14800;48.174;9.798;2023-03-14T07:24:56;10.30;78.00
27314;DHT22;14800;48.174;9.798;2023-03-14T07:27:22;10.40;78.00
27314;DHT22;14800;48.174;9.798;2023-03-14T07:29:47;10.40;78.00
27314;DHT22;14800;48.174;9.798;2023-03-14T07:32:13;10.40;77.70
27314;DHT22;14800;48.174;9.798;2023-03-14T07:34:41;10.50;77.80
27314;DHT22;14800;48.174;9.798;2023-03-14T07:37:07;10.50;77.70
27314;DHT22;14800;48.174;9.798;2023-03-14T07:39:33;10.50;77.70
27314;DHT22;14800;48.174;9.798;2023-03-14T07:41:59;10.60;77.70
27314;DHT22;14800;48.174;9.798;2023-03-14T07:44:25;10.60;77.50
27314;DHT22;14800;48.174;9.798;2023-03-14T07:46:50;10.60;77.40
27314;DHT22;14800;48.174;9.798;2023-03-14T07:49:16;10.60;77.50
27314;DHT22;14800;48.174;9.798;2023-03-14T07:51:42;10.60;77.30
27314;DHT22;14800;48.174;9.798;2023-03-14T07:54:09;10.70;77.20
27314;DHT22;14800;48.174;9.798;2023-03-14T07:56:35;10.70;77.30
27314;DHT22;14800;48.174;9.798;2023-03-14T07:59:00;10.80;77.30
27314;DHT22;14800;48.174;9.798;2023-03-14T08:01:26;10.80;77.50
27314;DHT22;14800;48.174;9.798;2023-03-14T08:03:52;10.80;77.70
27314;DHT22;14800;48.174;9.798;2023-03-14T08:06:17;10.90;77.50
27314;DHT22;14800;48.174;9.798;2023-03-14T08:08:43;10.90;77.60
27314;DHT22;14800;48.174;9.798;2023-03-14T08:11:08;11.00;77.60
27314;DHT22;14800;48.174;9.798;2023-03-14T08:13:35;11.10;77.30
27314;DHT22;14800;48.174;9.798;2023-03-14T08:16:01;11.20;77.40
27314;DHT22;14800;48.174;9.798;2023-03-14T08:18:26;11.20;77.20
27314;DHT22;14800;48.174;9.798;2023-03-14T08:20:52;11.30;77.00
27314;DHT22;14800;48.174;9.798;2023-03-14T08:23:17;11.40;76.60
27314;DHT22;14800;48.174;9.798;2023-03-14T08:25:43;11.40;76.20
27314;DHT22;14800;48.174;9.798;2023-03-14T08:28:09;11.50;76.00
27314;DHT22;14800;48.174;9.798;2023-03-14T08:30:34;11.60;75.80
27314;DHT22;14800;48.174;9.798;2023-03-14T08:33:00;11.60;75.60
27314;DHT22;14800;48.174;9.798;2023-03-14T08:35:26;11.70;75.30
27314;DHT22;14800;48.174;9.798;2023-03-14T08:37:51;11.70;76.10
27314;DHT22;14800;48.174;9.798;2023-03-14T08:40:18;11.70;75.10
27314;DHT22;14800;48.174;9.798;2023-03-14T08:42:44;11.80;74.90
27314;DHT22;14800;48.174;9.798;2023-03-14T08:45:12;11.90;74.70
27314;DHT22;14800;48.174;9.798;2023-03-14T08:47:38;12.00;74.70
27314;DHT22;14800;48.174;9.798;2023-03-14T08:50:05;12.00;74.40
27314;DHT22;14800;48.174;9.798;2023-03-14T08:52:32;12.10;73.90
27314;DHT22;14800;48.174;9.798;2023-03-14T08:54:58;12.20;73.80
27314;DHT22;14800;48.174;9.798;2023-03-14T08:57:24;12.30;73.60
27314;DHT22;14800;48.174;9.798;2023-03-14T08:59:53;12.30;73.40
27314;DHT22;14800;48.174;9.798;2023-03-14T09:02:20;12.40;72.90
27314;DHT22;14800;48.174;9.798;2023-03-14T09:04:46;12.40;72.10
27314;DHT22;14800;48.174;9.798;2023-03-14T09:07:12;12.50;71.80
27314;DHT22;14800;48.174;9.798;2023-03-14T09:09:37;12.60;71.60
27314;DHT22;14800;48.174;9.798;2023-03-14T09:12:03;12.60;71.30
27314;DHT22;14800;48.174;9.798;2023-03-14T09:14:30;12.60;71.30
27314;DHT22;14800;48.174;9.798;2023-03-14T09:16:56;12.70;71.20
27314;DHT22;14800;48.174;9.798;2023-03-14T09:19:21;12.80;71.10
27314;DHT22;14800;48.174;9.798;2023-03-14T09:21:47;12.70;70.30
27314;DHT22;14800;48.174;9.798;2023-03-14T09:24:13;12.80;70.20
27314;DHT22;14800;48.174;9.798;2023-03-14T09:26:38;12.80;70.00
27314;DHT22;14800;48.174;9.798;2023-03-14T09:29:04;12.90;70.40
27314;DHT22;14800;48.174;9.798;2023-03-14T09:31:29;12.90;70.10
27314;DHT22;14800;48.174;9.798;2023-03-14T09:33:55;12.90;70.10
27314;DHT22;14800;48.174;9.798;2023-03-14T09:36:21;12.90;69.80
27314;DHT22;14800;48.174;9.798;2023-03-14T09:38:47;12.90;69.70
27314;DHT22;14800;48.174;9.798;2023-03-14T09:44:15;13.00;69.20
27314;DHT22;14800;48.174;9.798;2023-03-14T09:46:44;13.00;69.80
27314;DHT22;14800;48.174;9.798;2023-03-14T09:49:36;13.10;69.90
27314;DHT22;14800;48.174;9.798;2023-03-14T09:52:02;13.10;68.50
27314;DHT22;14800;48.174;9.798;2023-03-14T09:56:55;13.20;69.30
27314;DHT22;14800;48.174;9.798;2023-03-14T09:59:21;13.30;68.60
27314;DHT22;14800;48.174;9.798;2023-03-14T10:01:47;13.30;68.30
27314;DHT22;14800;48.174;9.798;2023-03-14T10:04:15;13.40;68.10
27314;DHT22;14800;48.174;9.798;2023-03-14T10:06:44;13.40;68.80
27314;DHT22;14800;48.174;9.798;2023-03-14T10:09:21;13.40;67.40
27314;DHT22;14800;48.174;9.798;2023-03-14T10:11:53;13.50;66.40
27314;DHT22;14800;48.174;9.798;2023-03-14T10:14:32;13.50;67.00
27314;DHT22;14800;48.174;9.798;2023-03-14T10:17:05;13.50;65.50
27314;DHT22;14800;48.174;9.798;2023-03-14T10:19:32;13.50;66.40
27314;DHT22;14800;48.174;9.798;2023-03-14T10:22:01;13.50;66.10
27314;DHT22;14800;48.174;9.798;2023-03-14T10:24:29;13.60;66.20
27314;DHT22;14800;48.174;9.798;2023-03-14T10:27:00;13.60;66.00
27314;DHT22;14800;48.174;9.798;2023-03-14T10:29:30;13.60;65.60
27314;DHT22;14800;48.174;9.798;2023-03-14T10:32:04;13.60;66.00
27314;DHT22;14800;48.174;9.798;2023-03-14T10:34:34;13.60;65.80
27314;DHT22;14800;48.174;9.798;2023-03-14T10:37:21;13.60;66.20
27314;DHT22;14800;48.174;9.798;2023-03-14T10:39:51;13.60;66.00
27314;DHT22;14800;48.174;9.798;2023-03-14T10:42:50;13.70;66.50
27314;DHT22;14800;48.174;9.798;2023-03-14T10:45:33;13.70;66.40
27314;DHT22;14800;48.174;9.798;2023-03-14T10:48:07;13.70;65.50
27314;DHT22;14800;48.174;9.798;2023-03-14T10:53:25;13.80;65.40
27314;DHT22;14800;48.174;9.798;2023-03-14T10:55:51;13.90;65.30
27314;DHT22;14800;48.174;9.798;2023-03-14T10:58:40;13.90;64.60
27314;DHT22;14800;48.174;9.798;2023-03-14T11:03:34;13.90;64.70
27314;DHT22;14800;48.174;9.798;2023-03-14T11:06:10;13.90;64.80
27314;DHT22;14800;48.174;9.798;2023-03-14T11:09:00;13.90;64.80
27314;DHT22;14800;48.174;9.798;2023-03-14T11:11:31;13.90;64.60
27314;DHT22;14800;48.174;9.798;2023-03-14T11:14:17;14.00;65.00
27314;DHT22;14800;48.174;9.798;2023-03-14T11:22:17;14.00;63.70
27314;DHT22;14800;48.174;9.798;2023-03-14T11:24:49;13.90;64.50
27314;DHT22;14800;48.174;9.798;2023-03-14T11:27:25;13.90;64.10
27314;DHT22;14800;48.174;9.798;2023-03-14T11:32:46;13.80;64.00
27314;DHT22;14800;48.174;9.798;2023-03-14T11:37:54;13.80;63.80
27314;DHT22;14800;48.174;9.798;2023-03-14T11:40:23;13.80;64.10
27314;DHT22;14800;48.174;9.798;2023-03-14T11:43:04;13.70;64.40
27314;DHT22;14800;48.174;9.798;2023-03-14T11:45:35;13.70;64.00
27314;DHT22;14800;48.174;9.798;2023-03-14T11:50:52;13.80;64.00
27314;DHT22;14800;48.174;9.798;2023-03-14T11:53:43;13.80;65.00
27314;DHT22;14800;48.174;9.798;2023-03-14T11:56:23;13.80;64.50
27314;DHT22;14800;48.174;9.798;2023-03-14T11:59:01;13.80;64.90
27314;DHT22;14800;48.174;9.798;2023-03-14T12:01:36;13.80;65.20
27314;DHT22;14800;48.174;9.798;2023-03-14T12:06:50;13.60;65.50
27314;DHT22;14800;48.174;9.798;2023-03-14T12:09:18;13.60;65.40
27314;DHT22;14800;48.174;9.798;2023-03-14T12:11:49;13.50;65.70
27314;DHT22;14800;48.174;9.798;2023-03-14T12:14:35;13.40;65.90
27314;DHT22;14800;48.174;9.798;2023-03-14T12:19:44;13.20;67.40
27314;DHT22;14800;48.174;9.798;2023-03-14T12:22:27;13.10;67.30
27314;DHT22;14800;48.174;9.798;2023-03-14T12:25:19;13.00;67.40
27314;DHT22;14800;48.174;9.798;2023-03-14T12:33:20;12.70;69.10
27314;DHT22;14800;48.174;9.798;2023-03-14T12:35:47;12.60;69.70
27314;DHT22;14800;48.174;9.798;2023-03-14T12:38:31;12.50;69.30
27314;DHT22;14800;48.174;9.798;2023-03-14T12:43:52;12.20;71.00
27314;DHT22;14800;48.174;9.798;2023-03-14T12:56:21;12.00;72.50
27314;DHT22;14800;48.174;9.798;2023-03-14T13:01:33;11.80;72.60
27314;DHT22;14800;48.174;9.798;2023-03-14T13:04:09;11.80;72.50
27314;DHT22;14800;48.174;9.798;2023-03-14T13:12:15;11.60;74.20
27314;DHT22;14800;48.174;9.798;2023-03-14T13:14:48;11.50;73.30
27314;DHT22;14800;48.174;9.798;2023-03-14T13:17:15;11.40;73.50
27314;DHT22;14800;48.174;9.798;2023-03-14T13:19:41;11.40;73.70
27314;DHT22;14800;48.174;9.798;2023-03-14T13:22:25;11.30;73.60
27314;DHT22;14800;48.174;9.798;2023-03-14T13:25:10;11.20;74.00
27314;DHT22;14800;48.174;9.798;2023-03-14T13:27:36;11.20;74.90
27314;DHT22;14800;48.174;9.798;2023-03-14T13:32:45;11.10;74.70
27314;DHT22;14800;48.174;9.798;2023-03-14T13:35:27;11.10;75.10
27314;DHT22;14800;48.174;9.798;2023-03-14T13:37:58;11.00;75.50
27314;DHT22;14800;48.174;9.798;2023-03-14T13:40:32;11.00;75.80
27314;DHT22;14800;48.174;9.798;2023-03-14T13:49:09;10.90;74.40
27314;DHT22;14800;48.174;9.798;2023-03-14T13:51:39;10.70;74.30
27314;DHT22;14800;48.174;9.798;2023-03-14T13:54:14;10.40;74.70
27314;DHT22;14800;48.174;9.798;2023-03-14T13:56:40;10.10;76.50
27314;DHT22;14800;48.174;9.798;2023-03-14T13:59:24;9.80;77.30
27314;DHT22;14800;48.174;9.798;2023-03-14T14:01:51;9.60;79.60
27314;DHT22;14800;48.174;9.798;2023-03-14T14:04:21;9.50;79.80
27314;DHT22;14800;48.174;9.798;2023-03-14T14:07:00;9.40;81.20
27314;DHT22;14800;48.174;9.798;2023-03-14T14:09:29;9.40;82.90
27314;DHT22;14800;48.174;9.798;2023-03-14T14:11:56;9.30;81.70
27314;DHT22;14800;48.174;9.798;2023-03-14T14:14:30;9.30;81.30
27314;DHT22;14800;48.174;9.798;2023-03-14T14:16:58;9.40;81.60
27314;DHT22;14800;48.174;9.798;2023-03-14T14:19:27;9.40;80.30
27314;DHT22;14800;48.174;9.798;2023-03-14T14:21:53;9.40;79.40
27314;DHT22;14800;48.174;9.798;2023-03-14T14:24:22;9.40;78.20
27314;DHT22;14800;48.174;9.798;2023-03-14T14:26:53;9.50;76.50
27314;DHT22;14800;48.174;9.798;2023-03-14T14:29:33;9.40;74.60
27314;DHT22;14800;48.174;9.798;2023-03-14T14:32:02;9.50;72.40
27314;DHT22;14800;48.174;9.798;2023-03-14T14:34:28;9.60;72.00
27314;DHT22;14800;48.174;9.798;2023-03-14T14:36:53;9.50;70.60
27314;DHT22;14800;48.174;9.798;2023-03-14T14:41:49;9.60;69.70
27314;DHT22;14800;48.174;9.798;2023-03-14T14:44:21;9.70;69.70
27314;DHT22;14800;48.174;9.798;2023-03-14T14:46:48;9.70;69.90
27314;DHT22;14800;48.174;9.798;2023-03-14T14:49:18;9.70;68.80
27314;DHT22;14800;48.174;9.798;2023-03-14T14:51:47;9.60;67.70
27314;DHT22;14800;48.174;9.798;2023-03-14T14:54:18;9.60;68.10
27314;DHT22;14800;48.174;9.798;2023-03-14T14:56:52;9.60;69.00
27314;DHT22;14800;48.174;9.798;2023-03-14T14:59:26;9.50;70.30
27314;DHT22;14800;48.174;9.798;2023-03-14T15:01:59;9.40;71.60
27314;DHT22;14800;48.174;9.798;2023-03-14T15:04:26;9.30;71.30
27314;DHT22;14800;48.174;9.798;2023-03-14T15:06:52;9.30;71.10
27314;DHT22;14800;48.174;9.798;2023-03-14T15:09:19;9.20;70.20
27314;DHT22;14800;48.174;9.798;2023-03-14T15:11:46;9.10;69.70
27314;DHT22;14800;48.174;9.798;2023-03-14T15:14:11;9.00;69.90
27314;DHT22;14800;48.174;9.798;2023-03-14T15:16:38;9.00;69.50
27314;DHT22;14800;48.174;9.798;2023-03-14T15:19:22;9.00;69.40
27314;DHT22;14800;48.174;9.798;2023-03-14T15:21:50;9.10;69.00
27314;DHT22;14800;48.174;9.798;2023-03-14T15:24:16;9.00;68.80
27314;DHT22;14800;48.174;9.798;2023-03-14T15:26:41;9.00;68.60
27314;DHT22;14800;48.174;9.798;2023-03-14T15:29:10;9.00;69.00
27314;DHT22;14800;48.174;9.798;2023-03-14T15:31:38;9.00;69.00
27314;DHT22;14800;48.174;9.798;2023-03-14T15:34:04;9.00;68.90
27314;DHT22;14800;48.174;9.798;2023-03-14T15:36:32;9.00;68.90
27314;DHT22;14800;48.174;9.798;2023-03-14T15:38:58;9.00;67.80
27314;DHT22;14800;48.174;9.798;2023-03-14T15:41:27;9.00;68.00
27314;DHT22;14800;48.174;9.798;2023-03-14T15:43:53;9.00;68.50
27314;DHT22;14800;48.174;9.798;2023-03-14T15:46:19;9.00;68.60
27314;DHT22;14800;48.174;9.798;2023-03-14T15:48:47;9.00;68.80
27314;DHT22;14800;48.174;9.798;2023-03-14T15:51:14;9.00;68.50
27314;DHT22;14800;48.174;9.798;2023-03-14T15:53:40;9.00;68.60
27314;DHT22;14800;48.174;9.798;2023-03-14T15:56:09;9.00;68.80
27314;DHT22;14800;48.174;9.798;2023-03-14T15:58:36;9.00;68.70
27314;DHT22;14800;48.174;9.798;2023-03-14T16:01:02;9.00;68.90
27314;DHT22;14800;48.174;9.798;2023-03-14T16:03:28;9.00;68.30
27314;DHT22;14800;48.174;9.798;2023-03-14T16:05:54;9.00;68.10
27314;DHT22;14800;48.174;9.798;2023-03-14T16:08:21;9.00;68.00
27314;DHT22;14800;48.174;9.798;2023-03-14T16:10:47;9.10;67.30
27314;DHT22;14800;48.174;9.798;2023-03-14T16:13:13;9.00;67.40
27314;DHT22;14800;48.174;9.798;2023-03-14T16:15:39;9.00;67.40
27314;DHT22;14800;48.174;9.798;2023-03-14T16:18:04;9.10;67.40
27314;DHT22;14800;48.174;9.798;2023-03-14T16:20:30;9.10;67.00
27314;DHT22;14800;48.174;9.798;2023-03-14T16:22:56;9.10;66.80
27314;DHT22;14800;48.174;9.798;2023-03-14T16:25:22;9.20;66.00
27314;DHT22;14800;48.174;9.798;2023-03-14T16:27:47;9.20;65.50
27314;DHT22;14800;48.174;9.798;2023-03-14T16:30:14;9.20;65.60
27314;DHT22;14800;48.174;9.798;2023-03-14T16:32:39;9.20;65.20
27314;DHT22;14800;48.174;9.798;2023-03-14T16:35:05;9.20;65.40
27314;DHT22;14800;48.174;9.798;2023-03-14T16:37:31;9.30;65.40
27314;DHT22;14800;48.174;9.798;2023-03-14T16:39:57;9.30;65.10
27314;DHT22;14800;48.174;9.798;2023-03-14T16:42:23;9.30;64.50
27314;DHT22;14800;48.174;9.798;2023-03-14T16:44:48;9.30;64.80
27314;DHT22;14800;48.174;9.798;2023-03-14T16:47:14;9.30;65.00
27314;DHT22;14800;48.174;9.798;2023-03-14T16:49:40;9.30;65.20
27314;DHT22;14800;48.174;9.798;2023-03-14T16:52:06;9.30;65.30
27314;DHT22;14800;48.174;9.798;2023-03-14T16:54:32;9.30;65.40
27314;DHT22;14800;48.174;9.798;2023-03-14T16:56:58;9.30;65.20
27314;DHT22;14800;48.174;9.798;2023-03-14T16:59:24;9.30;65.00